YSU weather

Summerside Airport
Summerside, Prince Edward Island, Canada

Public forecast

Using degrees Celsius for public forecast. Weather courtesy of forecast.io.

Closest aviation weather report (METAR) to Summerside Airport

Closest report is Charlottetown Airport, 30.9 nm (57.2 km) ESE. Retrieved 2019/12/10 04:00 UTC (55 minutes ago):

CYYG 100400Z 16023KT 15SM -RA OVC017 07/06 A2994 RMK SC8 PRESFR SLP143

Closest aviation forecast (TAF) to Summerside Airport

Closest forecast is Charlottetown Airport, 30.9 nm (57.2 km) ESE. Retrieved 2019-12-10 00:42 UTC (4 hours ago):

TAF CYYG 092339Z 1000/1012 21015G25KT 4SM -RA BR OVC015 TEMPO 1000/1004 P6SM -RA SCT015 OVC050 FM100400 17018G28KT P6SM -RA OVC012 TEMPO 1004/1011 3SM -RA BR OVC008 BECMG 1006/1008 18025G40KT FM101100 20020G35KT 6SM -RA -DZ BR OVC009 RMK NXT FCST BY 100600Z